KCVS

Cannon Air Force Base

Airport
ICAO code
KCVS
Summary
ICAO Region
NAM
ICAO Territory
Location

Clovis, New Mexico

Serving
Clovis
Elevation
4295 ft
Coordinates
34° 23' 36" N , 103° 19' 10" W
KCC
Airport RE
Hot and High Operations
Metar
KCVS 181555Z AUTO 01021G27KT 10SM CLR 12/01 A3013 RMK AO2 PK WND 01033/09 SLP170 T01170013 $

Description

Cannon Air Force Base is a United States Air Force installation located 7 nm west the central business district of Clovis, New Mexico.

Airport map

Aerial View

SKYbrary Partners:

Safety knowledge contributed by: